Time;durP1;ratioP1;P1;durP2;ratioP2;P2;SDS_P1;SDS_P2;PMS_P1;PMS_P2;Temp;Humidity;BMP_temperature;BMP_pressure;BME280_temperature;BME280_humidity;BME280_pressure;Samples;Min_cycle;Max_cycle;Signal;HPM_P1;HPM_P2
2023/12/20 00:02:24;;;;;;;47.05;14.10;;;;;;;-0.14;98.47;100220.16;6316015;28;20044;-75
2023/12/20 00:05:25;;;;;;;71.97;19.92;;;;;;;-0.02;98.24;100218.25;6304028;28;20040;-75
2023/12/20 00:08:28;;;;;;;42.72;18.17;;;;;;;0.05;98.20;100211.28;6319728;28;20050;-75
2023/12/20 00:11:32;;;;;;;44.20;14.48;;;;;;;0.02;98.60;100208.75;6301404;28;20099;-75
2023/12/20 00:14:34;;;;;;;28.52;14.15;;;;;;;0.06;98.16;100199.31;6307402;28;20040;-70
2023/12/20 00:17:35;;;;;;;26.30;12.65;;;;;;;0.10;97.36;100196.66;6322760;28;20048;-74
2023/12/20 00:20:36;;;;;;;35.33;15.02;;;;;;;0.17;97.16;100187.16;6302316;28;20045;-71
2023/12/20 00:23:37;;;;;;;27.33;13.65;;;;;;;0.20;96.99;100179.41;6308172;28;20466;-71
2023/12/20 00:26:40;;;;;;;28.05;14.73;;;;;;;0.19;96.37;100180.28;6314834;28;20121;-75
2023/12/20 00:29:42;;;;;;;42.33;14.63;;;;;;;0.17;96.56;100176.91;6323105;28;20047;-71
2023/12/20 00:32:46;;;;;;;54.45;13.57;;;;;;;0.02;96.06;100162.59;6300112;28;20052;-75
2023/12/20 00:35:47;;;;;;;46.88;15.45;;;;;;;0.08;96.44;100159.09;6308615;28;20060;-75
2023/12/20 00:38:48;;;;;;;36.28;14.75;;;;;;;0.13;96.40;100157.31;6297142;28;20044;-71
2023/12/20 00:41:51;;;;;;;44.03;13.02;;;;;;;0.15;95.90;100155.56;6298589;28;20076;-74
2023/12/20 00:44:52;;;;;;;29.80;14.38;;;;;;;0.15;96.18;100153.00;6307238;28;20075;-75
2023/12/20 00:47:53;;;;;;;50.28;13.88;;;;;;;0.04;96.25;100144.59;6309565;28;20051;-75
2023/12/20 00:50:54;;;;;;;26.05;12.98;;;;;;;0.01;95.81;100134.41;6321879;28;20556;-71
2023/12/20 00:53:54;;;;;;;30.60;12.50;;;;;;;0.11;95.99;100141.09;6307545;28;20052;-74
2023/12/20 00:56:55;;;;;;;40.35;12.57;;;;;;;-0.08;95.03;100135.41;6295787;28;20040;-75
2023/12/20 00:59:56;;;;;;;39.08;13.82;;;;;;;-0.09;94.86;100129.41;6313114;28;20052;-71
2023/12/20 01:03:00;;;;;;;27.33;12.48;;;;;;;-0.12;96.01;100128.63;6295094;28;20049;-71
2023/12/20 01:06:05;;;;;;;35.80;13.18;;;;;;;-0.29;97.03;100118.63;6295226;28;20054;-75
2023/12/20 01:09:06;;;;;;;41.20;13.95;;;;;;;-0.14;96.77;100130.38;6295963;28;20049;-71
2023/12/20 01:12:06;;;;;;;27.92;14.63;;;;;;;-0.07;97.21;100116.56;6297156;28;20052;-71
2023/12/20 01:15:08;;;;;;;28.98;13.98;;;;;;;-0.07;97.08;100109.72;6296616;28;20066;-71
2023/12/20 01:18:08;;;;;;;45.22;14.25;;;;;;;-0.03;97.03;100095.97;6294312;28;20045;-75
2023/12/20 01:21:09;;;;;;;46.90;14.07;;;;;;;0.05;97.14;100085.59;6299502;28;20507;-75
2023/12/20 01:24:10;;;;;;;28.75;13.63;;;;;;;-0.05;97.39;100094.31;6298269;28;20044;-71
2023/12/20 01:27:11;;;;;;;27.60;14.57;;;;;;;-0.04;97.07;100076.34;6296517;28;20182;-75
2023/12/20 01:30:12;;;;;;;43.50;16.33;;;;;;;-0.10;96.83;100071.31;6294190;28;20052;-71
2023/12/20 01:33:16;;;;;;;54.15;15.85;;;;;;;-0.26;96.96;100067.31;6296046;28;20060;-75
2023/12/20 01:36:17;;;;;;;41.15;15.75;;;;;;;-0.17;96.88;100059.44;6301445;28;20051;-75
2023/12/20 01:39:20;;;;;;;39.67;16.48;;;;;;;-0.05;97.30;100055.81;6307010;28;20045;-75
2023/12/20 01:42:23;;;;;;;47.42;15.52;;;;;;;-0.27;96.98;100051.06;6297567;28;20068;-75
2023/12/20 01:45:24;;;;;;;47.58;13.70;;;;;;;-0.33;98.49;100058.88;6307162;28;20094;-75
2023/12/20 01:48:28;;;;;;;38.88;16.67;;;;;;;-0.71;98.01;100059.47;6295515;28;20048;-75
2023/12/20 01:51:29;;;;;;;31.98;16.38;;;;;;;-0.49;99.31;100050.56;6295475;28;20053;-71
2023/12/20 01:54:31;;;;;;;35.53;16.43;;;;;;;-0.29;98.99;100044.25;6296348;28;20512;-71
2023/12/20 01:57:32;;;;;;;102.23;19.00;;;;;;;-0.28;98.02;100049.38;6296348;28;20048;-71
2023/12/20 02:00:34;;;;;;;29.30;15.52;;;;;;;-0.18;98.41;100028.72;6297480;28;20704;-71
2023/12/20 02:03:36;;;;;;;37.30;16.00;;;;;;;-0.17;97.63;100027.81;6306531;28;20048;-71
2023/12/20 02:06:40;;;;;;;38.47;13.73;;;;;;;-0.18;97.09;100015.88;6306816;28;20051;-71
2023/12/20 02:09:41;;;;;;;45.13;18.20;;;;;;;-0.37;97.79;100013.63;6300712;28;20055;-71
2023/12/20 02:12:44;;;;;;;99.50;17.50;;;;;;;-0.20;98.36;100003.09;6295741;28;20132;-71
2023/12/20 02:15:44;;;;;;;63.97;18.20;;;;;;;-0.39;99.21;100011.94;6310397;28;20040;-75
2023/12/20 02:18:45;;;;;;;33.00;15.75;;;;;;;-0.31;99.76;100010.97;6304323;28;20598;-75
2023/12/20 02:21:46;;;;;;;69.25;16.10;;;;;;;-0.38;100.00;100005.97;6295719;28;20049;-75
2023/12/20 02:24:47;;;;;;;71.38;17.20;;;;;;;-0.36;99.78;100005.06;6294860;28;20094;-75
2023/12/20 02:27:49;;;;;;;51.20;16.02;;;;;;;-0.41;100.00;100001.75;6296145;28;20052;-71
2023/12/20 02:30:50;;;;;;;85.22;14.88;;;;;;;-0.37;100.00;100002.53;6314727;28;20044;-71
2023/12/20 02:33:51;;;;;;;89.53;16.80;;;;;;;-0.22;100.00;99997.97;6303078;28;20059;-75
2023/12/20 02:36:51;;;;;;;26.73;13.75;;;;;;;-0.24;100.00;99991.19;6294447;28;20416;-75
2023/12/20 02:39:52;;;;;;;44.08;12.77;;;;;;;-0.22;100.00;99980.03;6293842;28;20418;-75
2023/12/20 02:42:56;;;;;;;25.45;13.88;;;;;;;-0.23;100.00;99980.03;6309284;28;20130;-75
2023/12/20 02:45:57;;;;;;;26.50;11.20;;;;;;;-0.11;100.00;99982.38;6307315;28;20181;-75
2023/12/20 02:48:57;;;;;;;34.65;14.57;;;;;;;-0.09;100.00;99978.06;6312244;28;20056;-71
2023/12/20 02:51:58;;;;;;;47.97;14.40;;;;;;;-0.14;100.00;99972.19;6304021;28;20060;-75
2023/12/20 02:54:59;;;;;;;63.35;14.07;;;;;;;-0.04;100.00;99973.72;6307016;28;20040;-75
2023/12/20 02:58:00;;;;;;;39.50;14.98;;;;;;;0.07;100.00;99968.38;6313598;28;20063;-75
2023/12/20 03:01:01;;;;;;;46.08;14.73;;;;;;;0.11;100.00;99977.72;6295520;28;20106;-71
2023/12/20 03:04:02;;;;;;;56.50;16.13;;;;;;;0.10;100.00;99970.03;6303303;28;20052;-75
2023/12/20 03:07:03;;;;;;;36.88;17.17;;;;;;;0.05;100.00;99970.13;6297602;28;20157;-71
2023/12/20 03:10:06;;;;;;;53.90;18.73;;;;;;;0.06;100.00;99963.28;6305613;28;20082;-75
2023/12/20 03:13:06;;;;;;;46.42;15.65;;;;;;;0.04;100.00;99958.16;6317199;28;20055;-75
2023/12/20 03:16:16;;;;;;;29.38;15.57;;;;;;;0.12;100.00;99946.03;6313420;28;20048;-71
2023/12/20 03:19:19;;;;;;;35.45;15.70;;;;;;;0.15;100.00;99940.00;6309133;28;20052;-71
2023/12/20 03:22:20;;;;;;;33.95;16.05;;;;;;;0.11;100.00;99935.81;6306847;28;20512;-71
2023/12/20 03:25:21;;;;;;;78.95;16.75;;;;;;;0.14;100.00;99936.56;6301204;28;20263;-71
2023/12/20 03:28:25;;;;;;;29.70;15.68;;;;;;;0.11;100.00;99926.38;6306725;28;20094;-71
2023/12/20 03:31:31;;;;;;;37.55;13.80;;;;;;;0.10;100.00;99911.03;6309183;28;20055;-75
2023/12/20 03:34:32;;;;;;;37.70;12.32;;;;;;;0.06;100.00;99911.97;6302887;28;20051;-75
2023/12/20 03:37:33;;;;;;;73.80;14.43;;;;;;;-0.01;100.00;99903.53;6309180;28;20052;-71
2023/12/20 03:40:34;;;;;;;25.67;13.27;;;;;;;0.06;99.64;99899.97;6301096;28;20048;-71
2023/12/20 03:43:37;;;;;;;38.30;15.02;;;;;;;0.07;100.00;99913.66;6304501;28;20523;-71
2023/12/20 03:46:41;;;;;;;54.63;13.30;;;;;;;0.08;99.94;99910.22;6321593;28;20052;-71
2023/12/20 03:49:42;;;;;;;64.97;13.90;;;;;;;0.04;99.64;99891.47;6299448;28;20049;-75
2023/12/20 03:52:42;;;;;;;33.42;13.27;;;;;;;0.05;100.00;99884.63;6304046;28;20055;-72
2023/12/20 03:55:43;;;;;;;42.55;15.55;;;;;;;-0.07;100.00;99878.03;6309712;28;20071;-75
2023/12/20 03:58:44;;;;;;;52.67;15.95;;;;;;;-0.11;99.16;99877.22;6322659;28;20060;-71
2023/12/20 04:01:45;;;;;;;44.50;15.15;;;;;;;-0.14;99.41;99872.19;6304680;28;20455;-71
2023/12/20 04:04:46;;;;;;;34.72;16.00;;;;;;;-0.21;99.42;99868.03;6310181;28;20412;-71
2023/12/20 04:07:47;;;;;;;35.88;16.27;;;;;;;-0.27;98.86;99857.91;6298729;28;20056;-75
2023/12/20 04:10:48;;;;;;;52.42;17.50;;;;;;;-0.19;99.16;99857.75;6322092;28;20044;-71
2023/12/20 04:13:49;;;;;;;53.38;16.60;;;;;;;-0.21;98.90;99852.63;6300891;28;20051;-74
2023/12/20 04:16:50;;;;;;;42.20;15.73;;;;;;;-0.26;98.93;99852.75;6322544;28;20488;-75
2023/12/20 04:19:51;;;;;;;33.15;15.65;;;;;;;-0.27;99.13;99855.31;6316620;28;20451;-71
2023/12/20 04:22:52;;;;;;;40.22;15.10;;;;;;;-0.33;98.64;99856.31;6321512;28;20508;-71
2023/12/20 04:25:56;;;;;;;28.88;13.38;;;;;;;-0.27;98.49;99851.06;6306610;28;20047;-71
2023/12/20 04:28:59;;;;;;;28.80;15.35;;;;;;;-0.28;97.64;99851.94;6299230;28;20049;-75
2023/12/20 04:32:00;;;;;;;44.85;13.05;;;;;;;-0.44;97.51;99855.66;6304612;28;20055;-71
2023/12/20 04:35:01;;;;;;;22.85;12.23;;;;;;;-0.45;97.37;99854.00;6317607;28;20203;-71
2023/12/20 04:38:02;;;;;;;26.67;13.27;;;;;;;-0.32;97.77;99847.72;6309449;28;20062;-71
2023/12/20 04:41:03;;;;;;;53.72;17.75;;;;;;;-0.37;97.67;99851.25;6311178;28;20045;-75
2023/12/20 04:44:04;;;;;;;39.03;18.08;;;;;;;-0.31;98.11;99840.88;6309230;28;20484;-75
2023/12/20 04:47:05;;;;;;;31.30;16.08;;;;;;;-0.41;97.32;99835.13;6298722;28;20116;-75
2023/12/20 04:50:07;;;;;;;40.45;15.43;;;;;;;-0.38;97.45;99829.06;6299611;28;20139;-74
2023/12/20 04:53:08;;;;;;;32.57;15.10;;;;;;;-0.49;98.57;99827.56;6296494;28;20101;-71
2023/12/20 04:56:09;;;;;;;40.00;14.93;;;;;;;-0.46;97.83;99819.78;6308864;28;20076;-74
2023/12/20 04:59:10;;;;;;;22.90;13.55;;;;;;;-0.65;98.65;99821.88;6301641;28;20048;-71
2023/12/20 05:02:11;;;;;;;46.63;15.00;;;;;;;-0.65;98.64;99809.06;6302283;28;20048;-75
2023/12/20 05:05:12;;;;;;;23.67;14.45;;;;;;;-0.66;99.54;99816.78;6296452;28;20072;-75
2023/12/20 05:08:13;;;;;;;29.70;15.60;;;;;;;-0.62;98.96;99816.72;6295326;28;20051;-75
2023/12/20 05:11:15;;;;;;;34.30;15.63;;;;;;;-0.62;98.49;99819.28;6296722;28;20130;-71
2023/12/20 05:14:19;;;;;;;33.72;14.43;;;;;;;-0.59;98.58;99826.06;6296322;28;20067;-71
2023/12/20 05:17:22;;;;;;;33.45;16.25;;;;;;;-0.69;98.47;99829.66;6296118;28;20053;-75
2023/12/20 05:20:23;;;;;;;30.40;17.15;;;;;;;-1.01;99.56;99833.63;6295420;28;20455;-74
2023/12/20 05:23:24;;;;;;;46.10;18.33;;;;;;;-1.07;100.00;99834.59;6300823;28;20511;-70
2023/12/20 05:26:24;;;;;;;31.98;16.98;;;;;;;-0.96;100.00;99842.09;6296634;28;20056;-71
2023/12/20 05:29:26;;;;;;;48.53;14.80;;;;;;;-1.04;100.00;99838.81;6317097;28;20052;-75
2023/12/20 05:32:26;;;;;;;32.08;15.65;;;;;;;-1.06;100.00;99836.25;6316807;28;20492;-71
2023/12/20 05:35:27;;;;;;;48.72;15.77;;;;;;;-0.81;100.00;99843.53;6310223;28;20074;-75
2023/12/20 05:38:28;;;;;;;57.53;15.50;;;;;;;-0.74;100.00;99846.81;6320959;28;20059;-75
2023/12/20 05:41:29;;;;;;;31.80;16.05;;;;;;;-0.62;100.00;99849.16;6321586;28;20066;-75
2023/12/20 05:44:30;;;;;;;53.95;16.08;;;;;;;-0.50;100.00;99846.38;6311912;28;20131;-74
2023/12/20 05:47:31;;;;;;;64.45;15.93;;;;;;;-0.47;100.00;99840.34;6309610;28;20056;-71
2023/12/20 05:50:31;;;;;;;60.28;15.20;;;;;;;-0.33;100.00;99847.75;6308508;28;20055;-72
2023/12/20 05:53:32;;;;;;;36.75;14.63;;;;;;;-0.47;100.00;99841.19;6316586;28;20135;-72
2023/12/20 05:56:33;;;;;;;45.70;14.65;;;;;;;-0.62;100.00;99842.34;6322000;28;20048;-75
2023/12/20 05:59:34;;;;;;;76.13;15.13;;;;;;;-1.04;100.00;99847.31;6316459;28;20053;-75
2023/12/20 06:02:36;;;;;;;67.75;15.15;;;;;;;-0.92;100.00;99846.28;6295161;28;20074;-75
2023/12/20 06:05:37;;;;;;;23.42;13.27;;;;;;;-0.82;100.00;99841.84;6296505;28;20045;-71
2023/12/20 06:08:38;;;;;;;64.53;15.05;;;;;;;-0.71;100.00;99839.94;6296333;28;20067;-71
2023/12/20 06:11:39;;;;;;;47.00;12.23;;;;;;;-0.81;100.00;99838.41;6298810;28;20059;-75
2023/12/20 06:14:40;;;;;;;37.55;12.90;;;;;;;-0.77;100.00;99842.59;6318054;28;20071;-75
2023/12/20 06:17:41;;;;;;;35.67;12.63;;;;;;;-0.71;100.00;99841.66;6319323;28;20097;-75
2023/12/20 06:20:45;;;;;;;33.50;12.95;;;;;;;-0.62;100.00;99829.53;6318714;28;20405;-71
2023/12/20 06:23:46;;;;;;;29.40;11.50;;;;;;;-0.38;100.00;99822.22;6318190;28;20048;-71
2023/12/20 06:26:46;;;;;;;40.33;10.65;;;;;;;-0.90;100.00;99818.94;6321078;28;20059;-74
2023/12/20 06:29:50;;;;;;;35.78;10.63;;;;;;;-0.54;100.00;99825.94;6307727;28;20113;-71
2023/12/20 06:32:51;;;;;;;20.98;9.55;;;;;;;-0.68;100.00;99819.38;6295835;28;20531;-71
2023/12/20 06:35:52;;;;;;;20.95;10.98;;;;;;;-0.45;100.00;99823.22;6298368;28;20493;-71
2023/12/20 06:38:53;;;;;;;62.30;13.15;;;;;;;-0.38;100.00;99823.94;6294632;28;20472;-71
2023/12/20 06:41:54;;;;;;;55.25;12.60;;;;;;;-0.42;100.00;99821.44;6295319;28;20040;-72
2023/12/20 06:44:57;;;;;;;34.45;13.68;;;;;;;-0.49;100.00;99826.72;6293789;28;20045;-71
2023/12/20 06:47:58;;;;;;;51.88;13.65;;;;;;;-0.37;100.00;99823.06;6294925;28;20084;-75
2023/12/20 06:51:01;;;;;;;33.63;13.07;;;;;;;-0.41;100.00;99824.84;6294406;28;20064;-71
2023/12/20 06:54:03;;;;;;;23.33;13.02;;;;;;;-0.47;100.00;99815.56;6294022;28;20048;-75
2023/12/20 06:57:04;;;;;;;21.67;12.43;;;;;;;-0.46;100.00;99814.66;6295687;28;20059;-74
2023/12/20 07:00:05;;;;;;;31.10;12.27;;;;;;;-0.44;100.00;99810.34;6295882;28;20053;-71
2023/12/20 07:03:06;;;;;;;33.78;15.85;;;;;;;-0.50;100.00;99814.78;6299511;28;20093;-71
2023/12/20 07:06:08;;;;;;;49.15;14.77;;;;;;;-0.37;100.00;99807.69;6299131;28;20435;-74
2023/12/20 07:09:10;;;;;;;35.20;14.73;;;;;;;-0.29;99.54;99801.53;6299116;28;20052;-75
2023/12/20 07:12:11;;;;;;;54.90;16.65;;;;;;;-0.48;98.67;99798.47;6299113;28;20049;-71
2023/12/20 07:15:12;;;;;;;33.70;17.25;;;;;;;-0.47;98.60;99792.50;6298925;28;20063;-71
2023/12/20 07:18:13;;;;;;;36.80;17.15;;;;;;;-0.36;98.58;99786.31;6299059;28;20056;-72
2023/12/20 07:21:14;;;;;;;33.80;17.40;;;;;;;-0.22;98.41;99781.72;6298871;28;20095;-75
2023/12/20 07:24:15;;;;;;;55.15;24.73;;;;;;;-0.27;98.04;99776.72;6300126;28;20048;-71
2023/12/20 07:27:16;;;;;;;47.22;21.40;;;;;;;-0.24;97.66;99773.22;6299971;28;20126;-71
2023/12/20 07:30:17;;;;;;;37.22;19.40;;;;;;;-0.31;97.34;99774.22;6298881;28;20366;-72
2023/12/20 07:33:18;;;;;;;46.20;24.27;;;;;;;-0.29;96.02;99772.47;6298557;28;20049;-75
2023/12/20 07:36:19;;;;;;;41.25;18.75;;;;;;;-0.32;95.86;99759.72;6299558;28;20053;-76
2023/12/20 07:39:20;;;;;;;42.10;21.35;;;;;;;-0.25;96.34;99754.44;6299694;28;20083;-76
2023/12/20 07:42:22;;;;;;;51.78;25.10;;;;;;;-0.12;96.03;99738.78;6298188;28;20049;-76
2023/12/20 07:45:23;;;;;;;49.15;22.08;;;;;;;-0.21;95.07;99725.28;6298445;28;20154;-72
2023/12/20 07:48:23;;;;;;;43.83;22.35;;;;;;;-0.14;96.71;99731.13;6298211;28;20052;-76
2023/12/20 07:51:24;;;;;;;48.17;21.48;;;;;;;-0.54;97.94;99714.03;6299182;28;20550;-70
2023/12/20 07:54:25;;;;;;;41.08;17.92;;;;;;;-0.18;98.01;99714.13;6299163;28;20101;-75
2023/12/20 07:57:29;;;;;;;48.67;23.80;;;;;;;-0.09;98.06;99718.19;6299329;28;20056;-74
2023/12/20 08:00:30;;;;;;;37.22;17.88;;;;;;;0.07;98.11;99723.81;6297589;28;20059;-76
2023/12/20 08:03:31;;;;;;;57.97;27.60;;;;;;;0.25;97.81;99727.66;6297576;28;20511;-73
2023/12/20 08:06:35;;;;;;;57.53;27.63;;;;;;;0.54;97.97;99730.38;6297985;28;20074;-72
2023/12/20 08:09:36;;;;;;;40.28;20.35;;;;;;;0.82;97.74;99721.09;6297714;28;20094;-73
2023/12/20 08:12:37;;;;;;;67.82;28.58;;;;;;;0.97;97.41;99711.25;6296994;28;20496;-75
2023/12/20 08:15:40;;;;;;;45.53;24.92;;;;;;;1.12;97.02;99704.03;6297429;28;20558;-72
2023/12/20 08:18:41;;;;;;;42.45;21.77;;;;;;;1.10;97.18;99709.19;6297630;28;20048;-73
2023/12/20 08:21:45;;;;;;;52.95;21.30;;;;;;;1.46;97.07;99714.16;6298431;28;20096;-76
2023/12/20 08:24:46;;;;;;;43.38;21.48;;;;;;;1.61;96.32;99711.16;6298748;28;20041;-73
2023/12/20 08:27:46;;;;;;;36.22;18.90;;;;;;;1.86;95.94;99701.88;6298543;28;20045;-76
2023/12/20 08:30:47;;;;;;;27.20;14.20;;;;;;;1.95;95.49;99699.84;6298806;28;20056;-73
2023/12/20 08:33:48;;;;;;;38.08;19.77;;;;;;;2.07;95.37;99695.22;6298430;28;20057;-76
2023/12/20 08:36:51;;;;;;;35.58;17.30;;;;;;;2.20;95.64;99687.06;6298798;28;20139;-77
2023/12/20 08:39:52;;;;;;;36.40;17.92;;;;;;;2.45;94.75;99693.09;6297246;28;20048;-76
2023/12/20 08:42:55;;;;;;;42.03;19.27;;;;;;;2.24;95.27;99713.50;6298108;28;20136;-76
2023/12/20 08:45:56;;;;;;;41.67;20.83;;;;;;;2.52;95.97;99705.72;6297118;28;20087;-73
2023/12/20 08:48:56;;;;;;;41.03;20.70;;;;;;;2.62;94.34;99698.53;6296814;28;20052;-73
2023/12/20 08:51:57;;;;;;;30.20;18.00;;;;;;;2.69;94.34;99694.84;6296944;28;20053;-76
2023/12/20 08:54:58;;;;;;;30.85;17.63;;;;;;;2.42;95.76;99688.91;6296533;28;20044;-73
2023/12/20 08:57:59;;;;;;;34.15;16.40;;;;;;;2.05;98.79;99712.44;6297753;28;20416;-73
2023/12/20 09:01:00;;;;;;;32.40;17.45;;;;;;;2.15;99.72;99708.66;6297527;28;20053;-72
2023/12/20 09:04:01;;;;;;;32.28;16.92;;;;;;;2.11;100.00;99717.38;6298166;28;20448;-73
2023/12/20 09:07:04;;;;;;;35.40;18.63;;;;;;;2.29;100.00;99718.53;6296363;28;20048;-76
2023/12/20 09:10:13;;;;;;;30.60;17.70;;;;;;;2.31;100.00;99727.88;6297369;28;20049;-73
2023/12/20 09:13:13;;;;;;;29.48;15.60;;;;;;;2.35;100.00;99728.63;6297368;28;20080;-77
2023/12/20 09:16:15;;;;;;;32.22;18.58;;;;;;;2.54;100.00;99723.72;6297421;28;20047;-77
2023/12/20 09:19:21;;;;;;;33.50;17.63;;;;;;;2.32;100.00;99719.25;6296353;28;20131;-73
2023/12/20 09:22:25;;;;;;;34.67;16.92;;;;;;;1.38;100.00;99723.81;6295386;28;20059;-72
2023/12/20 09:25:26;;;;;;;37.88;18.80;;;;;;;0.91;100.00;99734.56;6297152;28;20123;-72
2023/12/20 09:28:27;;;;;;;74.10;18.92;;;;;;;1.21;100.00;99737.16;6297135;28;20056;-76
2023/12/20 09:31:28;;;;;;;42.25;18.67;;;;;;;1.18;100.00;99726.97;6295929;28;20489;-76
2023/12/20 09:34:31;;;;;;;77.18;19.23;;;;;;;1.00;100.00;99720.63;6297075;28;20099;-76
2023/12/20 09:37:32;;;;;;;56.25;19.10;;;;;;;0.94;100.00;99720.78;6312829;28;20056;-76
2023/12/20 09:40:36;;;;;;;41.28;20.70;;;;;;;0.93;100.00;99719.09;6297119;28;20416;-72
2023/12/20 09:43:40;;;;;;;32.95;15.15;;;;;;;0.93;100.00;99716.53;6312651;28;20059;-72
2023/12/20 09:46:44;;;;;;;40.05;14.43;;;;;;;0.75;100.00;99699.88;6295519;28;20046;-76
2023/12/20 09:49:48;;;;;;;42.78;15.75;;;;;;;0.85;100.00;99700.50;6296405;28;20048;-76
2023/12/20 09:52:51;;;;;;;45.10;16.08;;;;;;;0.99;100.00;99691.50;6296363;28;20159;-73
2023/12/20 09:55:53;;;;;;;35.78;16.30;;;;;;;1.14;100.00;99684.25;6296207;28;20054;-73
2023/12/20 09:58:54;;;;;;;45.72;17.20;;;;;;;1.16;100.00;99685.91;6294964;28;20634;-73
2023/12/20 10:01:58;;;;;;;35.28;16.08;;;;;;;1.49;100.00;99672.97;6295063;28;20053;-76
2023/12/20 10:05:00;;;;;;;54.97;16.17;;;;;;;1.02;100.00;99670.03;6296282;28;20055;-76
2023/12/20 10:08:02;;;;;;;46.75;18.10;;;;;;;1.41;100.00;99665.47;6294795;28;20389;-73
2023/12/20 10:11:04;;;;;;;33.05;17.15;;;;;;;1.36;100.00;99659.63;6294881;28;20451;-73
2023/12/20 10:14:06;;;;;;;41.33;18.13;;;;;;;1.53;100.00;99642.84;6295733;28;20048;-73
2023/12/20 10:17:07;;;;;;;74.73;18.67;;;;;;;1.24;100.00;99644.56;6296107;28;20044;-72
2023/12/20 10:20:12;;;;;;;60.60;19.80;;;;;;;1.45;100.00;99637.09;6294562;28;20278;-76
2023/12/20 10:23:15;;;;;;;67.57;16.83;;;;;;;1.52;100.00;99624.00;6294768;28;20522;-76
2023/12/20 10:26:23;;;;;;;41.78;16.52;;;;;;;1.58;100.00;99625.53;6295725;28;20103;-72
2023/12/20 10:29:24;;;;;;;46.53;17.17;;;;;;;1.51;100.00;99622.31;6311317;28;20135;-76
2023/12/20 10:32:26;;;;;;;43.03;20.00;;;;;;;1.89;100.00;99620.25;6294594;28;20053;-76
2023/12/20 10:35:27;;;;;;;47.85;18.08;;;;;;;2.12;100.00;99608.38;6310885;28;20048;-73
2023/12/20 10:38:31;;;;;;;43.83;21.48;;;;;;;2.33;100.00;99597.38;6295842;28;20447;-73
2023/12/20 10:41:33;;;;;;;67.90;21.88;;;;;;;2.15;99.61;99598.00;6295638;28;20052;-72
2023/12/20 10:44:33;;;;;;;46.77;19.30;;;;;;;2.30;99.45;99588.91;6294500;28;20080;-72
2023/12/20 10:47:36;;;;;;;54.30;20.23;;;;;;;2.35;98.85;99595.56;6295537;28;20055;-72
2023/12/20 10:50:40;;;;;;;47.70;20.27;;;;;;;2.52;98.21;99589.00;6295698;28;20075;-76
2023/12/20 10:53:42;;;;;;;36.63;18.15;;;;;;;2.67;97.51;99590.19;6295773;28;20576;-76
2023/12/20 10:56:45;;;;;;;46.97;21.10;;;;;;;2.55;97.48;99573.41;6294256;28;20044;-73
2023/12/20 10:59:50;;;;;;;44.63;19.65;;;;;;;2.74;97.52;99571.88;6294105;28;20477;-73
2023/12/20 11:02:52;;;;;;;46.28;18.10;;;;;;;2.76;97.45;99572.66;6294414;28;20083;-76
2023/12/20 11:06:01;;;;;;;56.35;19.48;;;;;;;2.92;96.24;99562.59;6295494;28;20056;-76
2023/12/20 11:09:12;;;;;;;42.35;17.83;;;;;;;2.96;95.88;99563.34;6295529;28;20056;-73
2023/12/20 11:12:28;;;;;;;37.88;17.88;;;;;;;2.86;95.47;99557.69;6295237;28;20053;-72
2023/12/20 11:15:30;;;;;;;64.45;16.45;;;;;;;2.77;95.90;99558.88;6295064;28;20567;-73
2023/12/20 11:18:32;;;;;;;40.03;17.23;;;;;;;2.70;94.89;99554.00;6294088;28;20051;-73
2023/12/20 11:21:33;;;;;;;32.33;16.20;;;;;;;2.72;95.75;99549.63;6295374;28;20059;-73
2023/12/20 11:24:37;;;;;;;36.40;15.25;;;;;;;2.94;95.28;99549.66;6295277;28;20287;-73
2023/12/20 11:27:45;;;;;;;46.72;16.75;;;;;;;2.79;94.83;99535.63;6293972;28;20055;-76
2023/12/20 11:30:48;;;;;;;67.95;15.77;;;;;;;2.83;94.28;99526.88;6295243;28;20224;-76
2023/12/20 11:33:48;;;;;;;27.75;14.15;;;;;;;2.99;94.10;99528.00;6310659;28;20049;-73
2023/12/20 11:36:57;;;;;;;31.08;16.27;;;;;;;3.10;93.68;99514.69;6294876;28;20190;-73
2023/12/20 11:40:07;;;;;;;28.30;16.05;;;;;;;3.21;94.03;99509.97;6293643;28;20095;-73
2023/12/20 11:43:09;;;;;;;34.47;16.23;;;;;;;3.36;93.31;99500.75;6294932;28;20048;-73
2023/12/20 11:46:10;;;;;;;34.00;16.83;;;;;;;3.42;93.07;99497.94;6294350;28;20535;-76
2023/12/20 11:49:11;;;;;;;41.55;18.55;;;;;;;3.38;92.23;99506.72;6298344;28;20048;-73
2023/12/20 11:52:13;;;;;;;44.22;21.38;;;;;;;3.23;92.30;99500.44;6299267;28;20052;-76
2023/12/20 11:55:14;;;;;;;34.67;16.25;;;;;;;3.34;92.00;99494.00;6299296;28;20045;-73
2023/12/20 11:58:17;;;;;;;52.55;14.80;;;;;;;3.31;92.44;99507.00;6298842;28;20412;-76
2023/12/20 12:01:20;;;;;;;29.08;13.48;;;;;;;3.07;93.33;99522.56;6299322;28;20044;-76
2023/12/20 12:04:22;;;;;;;28.40;13.18;;;;;;;2.70;95.06;99533.38;6299129;28;20079;-73
2023/12/20 12:07:23;;;;;;;27.23;13.63;;;;;;;2.33;98.38;99555.34;6299183;28;20053;-76
2023/12/20 12:10:23;;;;;;;38.80;9.93;;;;;;;2.04;100.00;99554.59;6297976;28;20072;-76
2023/12/20 12:13:27;;;;;;;42.20;13.18;;;;;;;2.11;100.00;99552.66;6297659;28;20048;-73
2023/12/20 12:16:29;;;;;;;26.15;10.95;;;;;;;1.88;100.00;99545.72;6314547;28;20041;-73
2023/12/20 12:19:35;;;;;;;40.45;12.60;;;;;;;1.51;100.00;99539.22;6297642;28;20064;-76
2023/12/20 12:22:36;;;;;;;25.60;11.70;;;;;;;1.79;100.00;99547.72;6298914;28;20044;-76
2023/12/20 12:25:37;;;;;;;32.15;11.27;;;;;;;1.78;100.00;99540.88;6298499;28;20109;-76
2023/12/20 12:28:42;;;;;;;60.92;13.02;;;;;;;2.06;100.00;99529.66;6298797;28;20076;-76
2023/12/20 12:31:43;;;;;;;56.55;14.20;;;;;;;2.20;100.00;99500.84;6298590;28;20056;-76
2023/12/20 12:34:46;;;;;;;45.13;12.48;;;;;;;2.30;100.00;99486.75;6298518;28;20127;-76
2023/12/20 12:37:47;;;;;;;47.63;11.95;;;;;;;2.13;100.00;99482.22;6298200;28;20048;-72
2023/12/20 12:40:49;;;;;;;57.65;13.63;;;;;;;2.33;100.00;99463.47;6298255;28;20520;-76
2023/12/20 12:43:50;;;;;;;62.23;13.17;;;;;;;2.47;100.00;99460.41;6298337;28;20048;-76
2023/12/20 12:46:53;;;;;;;38.28;11.00;;;;;;;2.39;100.00;99454.69;6297897;28;20289;-72
2023/12/20 12:49:54;;;;;;;51.72;11.20;;;;;;;2.20;100.00;99445.06;6298059;28;20049;-73
2023/12/20 12:52:55;;;;;;;82.55;29.50;;;;;;;2.17;100.00;99439.19;6297859;28;20051;-73
2023/12/20 12:55:56;;;;;;;36.13;14.00;;;;;;;2.35;100.00;99432.53;6296634;28;20037;-76
2023/12/20 12:58:57;;;;;;;47.65;18.92;;;;;;;2.32;100.00;99406.88;6296124;28;20060;-76
2023/12/20 13:02:00;;;;;;;52.45;14.90;;;;;;;2.07;100.00;99410.38;6297836;28;20520;-76
2023/12/20 13:05:02;;;;;;;53.63;15.77;;;;;;;2.19;100.00;99403.94;6296475;28;20414;-76
2023/12/20 13:08:05;;;;;;;38.40;11.13;;;;;;;2.08;100.00;99403.47;6297852;28;20091;-76
2023/12/20 13:11:08;;;;;;;28.08;11.20;;;;;;;2.19;100.00;99403.94;6296306;28;20052;-74
2023/12/20 13:14:15;;;;;;;56.80;11.73;;;;;;;2.05;100.00;99388.16;6297607;28;20056;-74
2023/12/20 13:17:16;;;;;;;65.55;11.10;;;;;;;2.14;100.00;99390.38;6297329;28;20055;-76
2023/12/20 13:20:19;;;;;;;26.17;11.02;;;;;;;1.97;100.00;99393.59;6297319;28;20052;-76
2023/12/20 13:23:20;;;;;;;44.50;10.85;;;;;;;1.64;100.00;99405.91;6297320;28;20056;-72
2023/12/20 13:26:21;;;;;;;38.13;12.93;;;;;;;1.87;100.00;99395.63;6295845;28;20090;-72
2023/12/20 13:29:22;;;;;;;18.20;10.20;;;;;;;1.76;100.00;99385.75;6297222;28;20080;-72
2023/12/20 13:32:22;;;;;;;50.22;11.32;;;;;;;1.87;100.00;99379.38;6296916;28;20048;-75
2023/12/20 13:35:25;;;;;;;19.95;9.50;;;;;;;1.89;100.00;99383.56;6296920;28;20496;-76
2023/12/20 13:38:26;;;;;;;26.77;9.52;;;;;;;1.59;100.00;99396.63;6296867;28;20571;-72
2023/12/20 13:41:27;;;;;;;42.05;11.27;;;;;;;1.66;100.00;99378.41;6295737;28;20049;-72
2023/12/20 13:44:28;;;;;;;26.38;11.07;;;;;;;1.79;100.00;99377.06;6295507;28;20040;-75
2023/12/20 13:47:29;;;;;;;25.83;7.78;;;;;;;1.64;100.00;99387.91;6297052;28;20093;-76
2023/12/20 13:50:30;;;;;;;23.95;10.07;;;;;;;1.88;100.00;99388.78;6295638;28;20386;-75
2023/12/20 13:53:31;;;;;;;17.00;8.30;;;;;;;1.71;100.00;99395.38;6295155;28;20052;-76
2023/12/20 13:56:33;;;;;;;21.95;12.73;;;;;;;1.29;100.00;99488.47;6296422;28;20052;-76